PWSweather.com
Personal Weather Stations
Station Observations
WAREHAM1
West Wareham, MA 02576

West Wareham, MA 02576

Lat: 41.7961059, Lon: -70.775612

Elevation: 88

Station Type: Davis Vantage Vue

http://www.gateway2capecod.com

High Low Average
Temperature 48.9°F9.4°F 45.5°F7.5°F 46.9°F8.3°F
Dew Point 47.8°F8.8°F 43.7°F6.5°F 45.4°F7.4°F
Winds 2.0 mph NE3.2 mph NE Calm Calm 0.5 mph 0.8 mph
Wind Gusts 8.1 mph13.0 mph -- 2.6 mph4.2 mph
Humidity 96% 91% 95%
Pressure 29.98 in1015.20 in 29.85 in1010.80 in -
Precipitation 2.10 in53.30 in - -
Hour Temp Dew Point Humidity Winds Wind Gusts Pressure Precip Precip Rate Daily Precip Total
12:00 AM 46.8°F8.2°C 45.3°F7.4°C 95% Calm Calm 0.9 mph1.4 kmh 29.96 in1014.6 mb 0.00 in0.0 mm 0.00 in0.0 mm 0.00 in0.0 mm
12:10 AM 46.8°F8.2°C 45.3°F7.4°C 95% Calm Calm 0.9 mph1.4 kmh 29.98 in1015.2 mb 0.00 in0.0 mm 0.00 in0.0 mm 0.00 in0.0 mm
12:20 AM 46.8°F8.2°C 45.3°F7.4°C 95% Calm Calm 2.0 mph3.2 kmh 29.96 in1014.6 mb 0.00 in0.0 mm 0.00 in0.0 mm 0.00 in0.0 mm
12:30 AM 46.8°F8.2°C 45.3°F7.4°C 95% Calm Calm 2.0 mph3.2 kmh 29.96 in1014.6 mb 0.00 in0.0 mm 0.00 in0.0 mm 0.00 in0.0 mm
12:40 AM 46.6°F8.1°C 45.1°F7.3°C 95% Calm Calm 2.0 mph3.2 kmh 29.96 in1014.6 mb 0.00 in0.0 mm 0.00 in0.0 mm 0.00 in0.0 mm
12:50 AM 46.6°F8.1°C 45.1°F7.3°C 95% Calm Calm 2.0 mph3.2 kmh 29.96 in1014.6 mb 0.00 in0.0 mm 0.00 in0.0 mm 0.00 in0.0 mm
01:00 AM 46.6°F8.1°C 45.1°F7.3°C 95% Calm Calm 0.9 mph1.4 kmh 29.96 in1014.6 mb 0.00 in0.0 mm 0.00 in0.0 mm 0.00 in0.0 mm
01:10 AM 46.8°F8.2°C 45.3°F7.4°C 95% Calm Calm 0.9 mph1.4 kmh 29.95 in1014.2 mb 0.00 in0.0 mm 0.00 in0.0 mm 0.00 in0.0 mm
01:20 AM 46.8°F8.2°C 45.3°F7.4°C 95% Calm Calm 0.9 mph1.4 kmh 29.95 in1014.2 mb 0.00 in0.0 mm 0.00 in0.0 mm 0.00 in0.0 mm
01:30 AM 46.8°F8.2°C 45.3°F7.4°C 95% Calm Calm -- 29.95 in1014.2 mb 0.00 in0.0 mm 0.00 in0.0 mm 0.00 in0.0 mm
01:40 AM 46.8°F8.2°C 45.3°F7.4°C 95% Calm Calm 1.0 mph1.6 kmh 29.95 in1014.2 mb 0.00 in0.0 mm 0.00 in0.0 mm 0.00 in0.0 mm
01:50 AM 46.6°F8.1°C 45.1°F7.3°C 95% Calm Calm -- 29.95 in1014.2 mb 0.00 in0.0 mm 0.00 in0.0 mm 0.00 in0.0 mm
02:00 AM 46.6°F8.1°C 45.1°F7.3°C 95% Calm Calm -- 29.94 in1013.9 mb 0.00 in0.0 mm 0.00 in0.0 mm 0.00 in0.0 mm
02:10 AM 46.2°F7.9°C 44.8°F7.1°C 95% Calm Calm -- 29.94 in1013.9 mb 0.00 in0.0 mm 0.00 in0.0 mm 0.00 in0.0 mm
02:20 AM 46.4°F8.0°C 45.3°F7.4°C 96% Calm Calm 1.0 mph1.6 kmh 29.93 in1013.5 mb 0.00 in0.0 mm 0.00 in0.0 mm 0.00 in0.0 mm
02:30 AM 46.2°F7.9°C 45.1°F7.3°C 96% Calm Calm 0.9 mph1.4 kmh 29.93 in1013.5 mb 0.00 in0.0 mm 0.00 in0.0 mm 0.00 in0.0 mm
02:40 AM 46.2°F7.9°C 45.1°F7.3°C 96% Calm Calm 1.0 mph1.6 kmh 29.92 in1013.2 mb 0.00 in0.0 mm 0.00 in0.0 mm 0.00 in0.0 mm
02:50 AM 46.0°F7.8°C 45.0°F7.2°C 96% Calm Calm 0.9 mph1.4 kmh 29.91 in1012.9 mb 0.00 in0.0 mm 0.00 in0.0 mm 0.00 in0.0 mm
03:00 AM 46.0°F7.8°C 45.0°F7.2°C 96% Calm Calm 0.9 mph1.4 kmh 29.94 in1013.9 mb 0.00 in0.0 mm 0.00 in0.0 mm 0.00 in0.0 mm
03:10 AM 46.0°F7.8°C 45.0°F7.2°C 96% Calm Calm -- 29.93 in1013.5 mb 0.00 in0.0 mm 0.00 in0.0 mm 0.00 in0.0 mm
03:20 AM 46.0°F7.8°C 45.0°F7.2°C 96% Calm Calm 1.0 mph1.6 kmh 29.91 in1012.9 mb 0.00 in0.0 mm 0.00 in0.0 mm 0.00 in0.0 mm
03:30 AM 45.7°F7.6°C 44.6°F7.0°C 96% Calm Calm -- 29.91 in1012.9 mb 0.00 in0.0 mm 0.00 in0.0 mm 0.00 in0.0 mm
03:40 AM 45.5°F7.5°C 44.4°F6.9°C 96% Calm Calm 0.9 mph1.4 kmh 29.90 in1012.5 mb 0.00 in0.0 mm 0.00 in0.0 mm 0.00 in0.0 mm
03:50 AM 45.5°F7.5°C 44.4°F6.9°C 96% Calm Calm 0.9 mph1.4 kmh 29.95 in1014.2 mb 0.00 in0.0 mm 0.00 in0.0 mm 0.00 in0.0 mm
04:00 AM 45.7°F7.6°C 44.6°F7.0°C 96% Calm Calm 0.9 mph1.4 kmh 29.95 in1014.2 mb 0.00 in0.0 mm 0.00 in0.0 mm 0.00 in0.0 mm
04:10 AM 45.7°F7.6°C 44.6°F7.0°C 96% Calm Calm -- 29.96 in1014.6 mb 0.00 in0.0 mm 0.00 in0.0 mm 0.00 in0.0 mm
04:20 AM 45.7°F7.6°C 44.6°F7.0°C 96% Calm Calm -- 29.97 in1014.9 mb 0.00 in0.0 mm 0.00 in0.0 mm 0.00 in0.0 mm
04:30 AM 45.7°F7.6°C 44.6°F7.0°C 96% Calm Calm 0.9 mph1.4 kmh 29.96 in1014.6 mb 0.00 in0.0 mm 0.00 in0.0 mm 0.00 in0.0 mm
04:40 AM 45.7°F7.6°C 44.6°F7.0°C 96% Calm Calm -- 29.96 in1014.6 mb 0.00 in0.0 mm 0.00 in0.0 mm 0.00 in0.0 mm
04:50 AM 45.7°F7.6°C 44.6°F7.0°C 96% Calm Calm -- 29.95 in1014.2 mb 0.00 in0.0 mm 0.00 in0.0 mm 0.00 in0.0 mm
05:00 AM 45.9°F7.7°C 44.8°F7.1°C 96% Calm Calm -- 29.94 in1013.9 mb 0.00 in0.0 mm 0.00 in0.0 mm 0.00 in0.0 mm
05:10 AM 45.9°F7.7°C 44.8°F7.1°C 96% Calm Calm -- 29.93 in1013.5 mb 0.00 in0.0 mm 0.00 in0.0 mm 0.01 in0.3 mm
05:20 AM 45.9°F7.7°C 44.8°F7.1°C 96% Calm Calm -- 29.94 in1013.9 mb 0.01 in0.3 mm 0.06 in1.5 mm 0.01 in0.3 mm
05:30 AM 45.9°F7.7°C 44.8°F7.1°C 96% Calm Calm -- 29.95 in1014.2 mb 0.01 in0.3 mm 0.00 in0.0 mm 0.01 in0.3 mm
05:40 AM 46.0°F7.8°C 45.0°F7.2°C 96% Calm Calm -- 29.94 in1013.9 mb 0.01 in0.3 mm 0.00 in0.0 mm 0.01 in0.3 mm
05:50 AM 46.0°F7.8°C 45.0°F7.2°C 96% Calm Calm -- 29.94 in1013.9 mb 0.02 in0.5 mm 0.06 in1.5 mm 0.02 in0.5 mm
06:00 AM 46.2°F7.9°C 45.1°F7.3°C 96% Calm Calm -- 29.95 in1014.2 mb 0.02 in0.5 mm 0.00 in0.0 mm 0.02 in0.5 mm
06:10 AM 46.4°F8.0°C 45.3°F7.4°C 96% Calm Calm -- 29.96 in1014.6 mb 0.03 in0.8 mm 0.06 in1.5 mm 0.03 in0.8 mm
06:20 AM 46.6°F8.1°C 45.5°F7.5°C 96% Calm Calm 0.9 mph1.4 kmh 29.95 in1014.2 mb 0.03 in0.8 mm 0.00 in0.0 mm 0.04 in1.0 mm
06:30 AM 46.8°F8.2°C 45.7°F7.6°C 96% Calm Calm 0.9 mph1.4 kmh 29.94 in1013.9 mb 0.03 in0.8 mm 0.00 in0.0 mm 0.04 in1.0 mm
06:40 AM 46.8°F8.2°C 45.7°F7.6°C 96% Calm Calm 1.0 mph1.6 kmh 29.94 in1013.9 mb 0.04 in1.0 mm 0.06 in1.5 mm 0.05 in1.3 mm
06:50 AM 46.6°F8.1°C 45.5°F7.5°C 96% Calm Calm 0.9 mph1.4 kmh 29.94 in1013.9 mb 0.04 in1.0 mm 0.00 in0.0 mm 0.06 in1.5 mm
07:00 AM 46.8°F8.2°C 45.7°F7.6°C 96% Calm Calm -- 29.95 in1014.2 mb 0.05 in1.3 mm 0.01 in0.3 mm 0.07 in1.8 mm
07:10 AM 46.8°F8.2°C 45.7°F7.6°C 96% Calm Calm 2.0 mph3.2 kmh 29.94 in1013.9 mb 0.05 in1.3 mm 0.00 in0.0 mm 0.08 in2.0 mm
07:20 AM 46.6°F8.1°C 45.5°F7.5°C 96% Calm Calm 2.0 mph3.2 kmh 29.94 in1013.9 mb 0.04 in1.0 mm 0.00 in0.0 mm 0.08 in2.0 mm
07:30 AM 46.6°F8.1°C 45.5°F7.5°C 96% Calm Calm 2.0 mph3.2 kmh 29.93 in1013.5 mb 0.05 in1.3 mm 0.06 in1.5 mm 0.10 in2.5 mm
07:40 AM 46.6°F8.1°C 45.5°F7.5°C 96% Calm Calm 2.0 mph3.2 kmh 29.93 in1013.5 mb 0.05 in1.3 mm 0.00 in0.0 mm 0.10 in2.5 mm
07:50 AM 46.6°F8.1°C 45.5°F7.5°C 96% Calm Calm 0.9 mph1.4 kmh 29.93 in1013.5 mb 0.05 in1.3 mm 0.00 in0.0 mm 0.11 in2.8 mm
08:00 AM 46.8°F8.2°C 45.7°F7.6°C 96% Calm Calm 2.9 mph4.7 kmh 29.93 in1013.5 mb 0.05 in1.3 mm 0.00 in0.0 mm 0.12 in3.0 mm
08:10 AM 46.6°F8.1°C 45.5°F7.5°C 96% 0.9 mph NE1.4 kmh NE 2.9 mph4.7 kmh 29.93 in1013.5 mb 0.04 in1.0 mm 0.00 in0.0 mm 0.12 in3.0 mm
08:20 AM 46.8°F8.2°C 45.7°F7.6°C 96% 0.9 mph E1.4 kmh E 2.9 mph4.7 kmh 29.93 in1013.5 mb 0.05 in1.3 mm 0.06 in1.5 mm 0.13 in3.3 mm
08:30 AM 46.8°F8.2°C 45.7°F7.6°C 96% Calm Calm 2.9 mph4.7 kmh 29.93 in1013.5 mb 0.05 in1.3 mm 0.00 in0.0 mm 0.14 in3.6 mm
08:40 AM 46.9°F8.3°C 45.9°F7.7°C 96% Calm Calm 0.9 mph1.4 kmh 29.93 in1013.5 mb 0.05 in1.3 mm 0.00 in0.0 mm 0.15 in3.8 mm
08:50 AM 46.9°F8.3°C 45.9°F7.7°C 96% 0.9 mph NE1.4 kmh NE 3.0 mph4.8 kmh 29.93 in1013.5 mb 0.05 in1.3 mm 0.00 in0.0 mm 0.16 in4.1 mm
09:00 AM 46.9°F8.3°C 45.9°F7.7°C 96% 0.9 mph NE1.4 kmh NE 4.0 mph6.4 kmh 29.92 in1013.2 mb 0.04 in1.0 mm 0.00 in0.0 mm 0.16 in4.1 mm
09:10 AM 47.3°F8.5°C 46.2°F7.9°C 96% 0.9 mph ENE1.4 kmh ENE 2.9 mph4.7 kmh 29.93 in1013.5 mb 0.04 in1.0 mm 0.00 in0.0 mm 0.16 in4.1 mm
09:20 AM 47.1°F8.4°C 46.0°F7.8°C 96% 2.0 mph NE3.2 kmh NE 4.9 mph7.9 kmh 29.93 in1013.5 mb 0.04 in1.0 mm 0.00 in0.0 mm 0.17 in4.3 mm
09:30 AM 47.3°F8.5°C 46.2°F7.9°C 96% 0.9 mph ENE1.4 kmh ENE 2.9 mph4.7 kmh 29.92 in1013.2 mb 0.03 in0.8 mm 0.00 in0.0 mm 0.18 in4.6 mm
09:40 AM 47.7°F8.7°C 46.6°F8.1°C 96% 0.9 mph N1.4 kmh N 2.9 mph4.7 kmh 29.93 in1013.5 mb 0.03 in0.8 mm 0.00 in0.0 mm 0.18 in4.6 mm
09:50 AM 47.7°F8.7°C 46.6°F8.1°C 96% Calm Calm 2.0 mph3.2 kmh 29.93 in1013.5 mb 0.03 in0.8 mm 0.00 in0.0 mm 0.20 in5.1 mm
10:00 AM 47.7°F8.7°C 46.6°F8.1°C 96% 0.9 mph E1.4 kmh E 4.0 mph6.4 kmh 29.93 in1013.5 mb 0.04 in1.0 mm 0.01 in0.3 mm 0.20 in5.1 mm
10:10 AM 47.7°F8.7°C 46.6°F8.1°C 96% Calm Calm 2.9 mph4.7 kmh 29.93 in1013.5 mb 0.05 in1.3 mm 0.06 in1.5 mm 0.21 in5.3 mm
10:20 AM 47.8°F8.8°C 46.8°F8.2°C 96% 0.9 mph E1.4 kmh E 4.0 mph6.4 kmh 29.93 in1013.5 mb 0.05 in1.3 mm 0.00 in0.0 mm 0.22 in5.6 mm
10:30 AM 48.4°F9.1°C 47.3°F8.5°C 96% Calm Calm 4.0 mph6.4 kmh 29.93 in1013.5 mb 0.06 in1.5 mm 0.06 in1.5 mm 0.23 in5.8 mm
10:40 AM 48.4°F9.1°C 47.3°F8.5°C 96% Calm Calm 2.0 mph3.2 kmh 29.93 in1013.5 mb 0.05 in1.3 mm 0.00 in0.0 mm 0.23 in5.8 mm
10:50 AM 48.6°F9.2°C 47.5°F8.6°C 96% Calm Calm 0.9 mph1.4 kmh 29.93 in1013.5 mb 0.05 in1.3 mm 0.00 in0.0 mm 0.24 in6.1 mm
11:00 AM 48.4°F9.1°C 47.3°F8.5°C 96% 0.9 mph E1.4 kmh E 4.9 mph7.9 kmh 29.93 in1013.5 mb 0.05 in1.3 mm 0.00 in0.0 mm 0.25 in6.4 mm
11:10 AM 48.6°F9.2°C 47.5°F8.6°C 96% 0.9 mph E1.4 kmh E 2.9 mph4.7 kmh 29.93 in1013.5 mb 0.05 in1.3 mm 0.00 in0.0 mm 0.26 in6.6 mm
11:20 AM 48.4°F9.1°C 46.9°F8.3°C 95% 0.9 mph NE1.4 kmh NE 4.9 mph7.9 kmh 29.92 in1013.2 mb 0.05 in1.3 mm 0.00 in0.0 mm 0.27 in6.9 mm
11:31 AM 48.6°F9.2°C 47.5°F8.6°C 96% 0.9 mph ENE1.4 kmh ENE 2.9 mph4.7 kmh 29.92 in1013.2 mb 0.05 in1.3 mm 0.00 in0.0 mm 0.28 in7.1 mm
11:41 AM 48.7°F9.3°C 47.7°F8.7°C 96% 0.9 mph NNW1.4 kmh NNW 2.0 mph3.2 kmh 29.91 in1012.9 mb 0.05 in1.3 mm 0.00 in0.0 mm 0.28 in7.1 mm
11:51 AM 48.9°F9.4°C 47.8°F8.8°C 96% 0.9 mph E1.4 kmh E 4.0 mph6.4 kmh 29.91 in1012.9 mb 0.05 in1.3 mm 0.00 in0.0 mm 0.29 in7.4 mm
12:01 PM 48.9°F9.4°C 47.8°F8.8°C 96% 0.9 mph NNE1.4 kmh NNE 2.9 mph4.7 kmh 29.90 in1012.5 mb 0.04 in1.0 mm 0.00 in0.0 mm 0.29 in7.4 mm
12:11 PM 48.7°F9.3°C 47.3°F8.5°C 95% 0.9 mph ENE1.4 kmh ENE 4.9 mph7.9 kmh 29.89 in1012.2 mb 0.04 in1.0 mm 0.00 in0.0 mm 0.30 in7.6 mm
12:21 PM 48.6°F9.2°C 47.1°F8.4°C 95% 0.9 mph NNE1.4 kmh NNE 4.9 mph7.9 kmh 29.89 in1012.2 mb 0.03 in0.8 mm 0.00 in0.0 mm 0.31 in7.9 mm
12:31 PM 48.4°F9.1°C 46.9°F8.3°C 95% 0.9 mph E1.4 kmh E 5.0 mph8.0 kmh 29.89 in1012.2 mb 0.03 in0.8 mm 0.00 in0.0 mm 0.31 in7.9 mm
12:41 PM 48.4°F9.1°C 46.9°F8.3°C 95% 0.9 mph NE1.4 kmh NE 4.0 mph6.4 kmh 29.89 in1012.2 mb 0.04 in1.0 mm 0.06 in1.5 mm 0.32 in8.1 mm
12:51 PM 48.4°F9.1°C 47.3°F8.5°C 96% 0.9 mph E1.4 kmh E 2.9 mph4.7 kmh 29.88 in1011.9 mb 0.03 in0.8 mm 0.00 in0.0 mm 0.32 in8.1 mm
01:01 PM 48.6°F9.2°C 47.1°F8.4°C 95% Calm Calm 4.0 mph6.4 kmh 29.88 in1011.9 mb 0.04 in1.0 mm 0.01 in0.3 mm 0.33 in8.4 mm
01:11 PM 48.0°F8.9°C 46.6°F8.1°C 95% 0.9 mph NE1.4 kmh NE 6.0 mph9.7 kmh 29.88 in1011.9 mb 0.03 in0.8 mm 0.00 in0.0 mm 0.33 in8.4 mm
01:21 PM 48.0°F8.9°C 46.6°F8.1°C 95% 0.9 mph NE1.4 kmh NE 6.0 mph9.7 kmh 29.88 in1011.9 mb 0.03 in0.8 mm 0.00 in0.0 mm 0.34 in8.6 mm
01:31 PM 47.8°F8.8°C 46.4°F8.0°C 95% 0.9 mph NE1.4 kmh NE 4.0 mph6.4 kmh 29.88 in1011.9 mb 0.03 in0.8 mm 0.00 in0.0 mm 0.34 in8.6 mm
01:41 PM 48.0°F8.9°C 46.6°F8.1°C 95% Calm Calm 2.0 mph3.2 kmh 29.88 in1011.9 mb 0.02 in0.5 mm 0.00 in0.0 mm 0.34 in8.6 mm
01:51 PM 47.8°F8.8°C 46.4°F8.0°C 95% 0.9 mph NNE1.4 kmh NNE 4.0 mph6.4 kmh 29.89 in1012.2 mb 0.02 in0.5 mm 0.00 in0.0 mm 0.34 in8.6 mm
02:01 PM 47.7°F8.7°C 46.2°F7.9°C 95% 0.9 mph E1.4 kmh E 2.9 mph4.7 kmh 29.89 in1012.2 mb 0.02 in0.5 mm 0.00 in0.0 mm 0.35 in8.9 mm
02:11 PM 47.7°F8.7°C 46.2°F7.9°C 95% 0.9 mph NE1.4 kmh NE 4.0 mph6.4 kmh 29.89 in1012.2 mb 0.02 in0.5 mm 0.00 in0.0 mm 0.35 in8.9 mm
02:21 PM 47.8°F8.8°C 46.4°F8.0°C 95% 0.9 mph E1.4 kmh E 5.0 mph8.0 kmh 29.88 in1011.9 mb 0.02 in0.5 mm 0.00 in0.0 mm 0.35 in8.9 mm
02:31 PM 47.8°F8.8°C 46.4°F8.0°C 95% 2.0 mph NE3.2 kmh NE 4.0 mph6.4 kmh 29.87 in1011.5 mb 0.01 in0.3 mm 0.00 in0.0 mm 0.35 in8.9 mm
02:41 PM 48.0°F8.9°C 46.6°F8.1°C 95% 2.0 mph NE3.2 kmh NE 6.0 mph9.7 kmh 29.87 in1011.5 mb 0.01 in0.3 mm 0.00 in0.0 mm 0.35 in8.9 mm
02:51 PM 47.8°F8.8°C 46.4°F8.0°C 95% 0.9 mph ENE1.4 kmh ENE 4.0 mph6.4 kmh 29.88 in1011.9 mb 0.01 in0.3 mm 0.00 in0.0 mm 0.35 in8.9 mm
03:01 PM 48.0°F8.9°C 46.6°F8.1°C 95% 0.9 mph E1.4 kmh E 6.0 mph9.7 kmh 29.87 in1011.5 mb 0.00 in0.0 mm 0.00 in0.0 mm 0.35 in8.9 mm
03:11 PM 47.8°F8.8°C 46.2°F7.9°C 94% 0.9 mph N1.4 kmh N 4.9 mph7.9 kmh 29.87 in1011.5 mb 0.00 in0.0 mm 0.00 in0.0 mm 0.35 in8.9 mm
03:21 PM 47.8°F8.8°C 46.2°F7.9°C 94% 2.0 mph ESE3.2 kmh ESE 6.0 mph9.7 kmh 29.87 in1011.5 mb 0.00 in0.0 mm 0.00 in0.0 mm 0.35 in8.9 mm
03:31 PM 47.8°F8.8°C 46.2°F7.9°C 94% 0.9 mph E1.4 kmh E 6.9 mph11.1 kmh 29.87 in1011.5 mb 0.00 in0.0 mm 0.00 in0.0 mm 0.35 in8.9 mm
03:41 PM 47.8°F8.8°C 45.9°F7.7°C 93% 2.0 mph E3.2 kmh E 4.9 mph7.9 kmh 29.86 in1011.2 mb 0.00 in0.0 mm 0.00 in0.0 mm 0.35 in8.9 mm
03:51 PM 47.8°F8.8°C 45.9°F7.7°C 93% 2.0 mph ENE3.2 kmh ENE 6.9 mph11.1 kmh 29.86 in1011.2 mb 0.00 in0.0 mm 0.00 in0.0 mm 0.35 in8.9 mm
04:01 PM 47.7°F8.7°C 45.7°F7.6°C 93% 2.0 mph ENE3.2 kmh ENE 4.9 mph7.9 kmh 29.86 in1011.2 mb 0.00 in0.0 mm 0.00 in0.0 mm 0.35 in8.9 mm
04:11 PM 47.5°F8.6°C 45.5°F7.5°C 93% 2.0 mph ESE3.2 kmh ESE 6.0 mph9.7 kmh 29.86 in1011.2 mb 0.00 in0.0 mm 0.00 in0.0 mm 0.35 in8.9 mm
04:21 PM 47.8°F8.8°C 45.9°F7.7°C 93% 0.9 mph NE1.4 kmh NE 6.0 mph9.7 kmh 29.85 in1010.8 mb 0.00 in0.0 mm 0.00 in0.0 mm 0.35 in8.9 mm
04:31 PM 47.7°F8.7°C 45.7°F7.6°C 93% 2.0 mph NE3.2 kmh NE 4.9 mph7.9 kmh 29.86 in1011.2 mb 0.00 in0.0 mm 0.00 in0.0 mm 0.35 in8.9 mm
04:41 PM 47.5°F8.6°C 45.3°F7.4°C 92% 0.9 mph NE1.4 kmh NE 5.0 mph8.0 kmh 29.86 in1011.2 mb 0.00 in0.0 mm 0.00 in0.0 mm 0.35 in8.9 mm
04:51 PM 47.3°F8.5°C 45.3°F7.4°C 93% 2.0 mph NE3.2 kmh NE 7.0 mph11.3 kmh 29.86 in1011.2 mb 0.00 in0.0 mm 0.00 in0.0 mm 0.35 in8.9 mm
05:01 PM 47.1°F8.4°C 45.0°F7.2°C 92% 0.9 mph ENE1.4 kmh ENE 4.9 mph7.9 kmh 29.86 in1011.2 mb 0.00 in0.0 mm 0.00 in0.0 mm 0.35 in8.9 mm
05:11 PM 47.1°F8.4°C 45.0°F7.2°C 92% 0.9 mph NE1.4 kmh NE 5.0 mph8.0 kmh 29.86 in1011.2 mb 0.00 in0.0 mm 0.00 in0.0 mm 0.35 in8.9 mm
05:21 PM 47.3°F8.5°C 45.1°F7.3°C 92% 0.9 mph ENE1.4 kmh ENE 7.0 mph11.3 kmh 29.85 in1010.8 mb 0.00 in0.0 mm 0.00 in0.0 mm 0.35 in8.9 mm
05:31 PM 47.1°F8.4°C 45.0°F7.2°C 92% 2.0 mph NE3.2 kmh NE 4.9 mph7.9 kmh 29.85 in1010.8 mb 0.00 in0.0 mm 0.00 in0.0 mm 0.35 in8.9 mm
05:41 PM 46.9°F8.3°C 44.8°F7.1°C 92% 2.0 mph ENE3.2 kmh ENE 8.1 mph13.0 kmh 29.85 in1010.8 mb 0.00 in0.0 mm 0.00 in0.0 mm 0.35 in8.9 mm
05:51 PM 46.9°F8.3°C 44.8°F7.1°C 92% 2.0 mph E3.2 kmh E 4.9 mph7.9 kmh 29.85 in1010.8 mb 0.00 in0.0 mm 0.00 in0.0 mm 0.35 in8.9 mm
06:01 PM 46.9°F8.3°C 44.4°F6.9°C 91% 0.9 mph NE1.4 kmh NE 6.0 mph9.7 kmh 29.85 in1010.8 mb 0.00 in0.0 mm 0.00 in0.0 mm 0.35 in8.9 mm
06:11 PM 47.1°F8.4°C 45.0°F7.2°C 92% 0.9 mph E1.4 kmh E 4.0 mph6.4 kmh 29.85 in1010.8 mb 0.00 in0.0 mm 0.00 in0.0 mm 0.35 in8.9 mm
06:21 PM 47.1°F8.4°C 45.0°F7.2°C 92% 0.9 mph E1.4 kmh E 2.9 mph4.7 kmh 29.85 in1010.8 mb 0.00 in0.0 mm 0.00 in0.0 mm 0.35 in8.9 mm
06:31 PM 46.9°F8.3°C 44.8°F7.1°C 92% 0.9 mph NNW1.4 kmh NNW 4.0 mph6.4 kmh 29.86 in1011.2 mb 0.00 in0.0 mm 0.00 in0.0 mm 0.35 in8.9 mm
06:41 PM 46.9°F8.3°C 44.8°F7.1°C 92% Calm Calm 4.0 mph6.4 kmh 29.86 in1011.2 mb 0.00 in0.0 mm 0.00 in0.0 mm 0.35 in8.9 mm
06:51 PM 46.8°F8.2°C 44.6°F7.0°C 92% Calm Calm 2.9 mph4.7 kmh 29.86 in1011.2 mb 0.00 in0.0 mm 0.00 in0.0 mm 0.35 in8.9 mm
07:01 PM 46.8°F8.2°C 44.6°F7.0°C 92% Calm Calm 2.0 mph3.2 kmh 29.87 in1011.5 mb 0.00 in0.0 mm 0.00 in0.0 mm 0.35 in8.9 mm
07:11 PM 46.6°F8.1°C 44.4°F6.9°C 92% Calm Calm 4.0 mph6.4 kmh 29.87 in1011.5 mb 0.00 in0.0 mm 0.00 in0.0 mm 0.35 in8.9 mm
07:21 PM 46.4°F8.0°C 44.2°F6.8°C 92% Calm Calm 2.9 mph4.7 kmh 29.87 in1011.5 mb 0.00 in0.0 mm 0.00 in0.0 mm 0.35 in8.9 mm
07:31 PM 46.0°F7.8°C 43.9°F6.6°C 92% 0.9 mph NE1.4 kmh NE 6.0 mph9.7 kmh 29.87 in1011.5 mb 0.00 in0.0 mm 0.00 in0.0 mm 0.35 in8.9 mm
07:41 PM 46.2°F7.9°C 44.1°F6.7°C 92% Calm Calm 0.9 mph1.4 kmh 29.87 in1011.5 mb 0.00 in0.0 mm 0.00 in0.0 mm 0.35 in8.9 mm
07:51 PM 46.0°F7.8°C 43.9°F6.6°C 92% Calm Calm 3.0 mph4.8 kmh 29.86 in1011.2 mb 0.00 in0.0 mm 0.00 in0.0 mm 0.35 in8.9 mm
08:01 PM 46.0°F7.8°C 43.9°F6.6°C 92% 0.9 mph NE1.4 kmh NE 2.9 mph4.7 kmh 29.87 in1011.5 mb 0.00 in0.0 mm 0.00 in0.0 mm 0.35 in8.9 mm
08:11 PM 46.0°F7.8°C 43.9°F6.6°C 92% Calm Calm 2.0 mph3.2 kmh 29.87 in1011.5 mb 0.00 in0.0 mm 0.00 in0.0 mm 0.35 in8.9 mm
08:21 PM 45.9°F7.7°C 43.7°F6.5°C 92% Calm Calm 2.0 mph3.2 kmh 29.88 in1011.9 mb 0.00 in0.0 mm 0.00 in0.0 mm 0.35 in8.9 mm
08:31 PM 45.9°F7.7°C 43.9°F6.6°C 93% Calm Calm 2.9 mph4.7 kmh 29.88 in1011.9 mb 0.00 in0.0 mm 0.00 in0.0 mm 0.35 in8.9 mm
08:41 PM 46.0°F7.8°C 44.1°F6.7°C 93% Calm Calm 2.0 mph3.2 kmh 29.88 in1011.9 mb 0.00 in0.0 mm 0.00 in0.0 mm 0.35 in8.9 mm
08:51 PM 45.9°F7.7°C 43.9°F6.6°C 93% Calm Calm 2.0 mph3.2 kmh 29.88 in1011.9 mb 0.00 in0.0 mm 0.00 in0.0 mm 0.35 in8.9 mm
09:01 PM 45.9°F7.7°C 43.9°F6.6°C 93% Calm Calm 3.0 mph4.8 kmh 29.88 in1011.9 mb 0.00 in0.0 mm 0.00 in0.0 mm 0.35 in8.9 mm
09:11 PM 45.9°F7.7°C 43.9°F6.6°C 93% 0.9 mph NE1.4 kmh NE 4.0 mph6.4 kmh 29.88 in1011.9 mb 0.00 in0.0 mm 0.00 in0.0 mm 0.35 in8.9 mm
09:21 PM 45.7°F7.6°C 43.7°F6.5°C 93% 0.9 mph N1.4 kmh N 2.0 mph3.2 kmh 29.88 in1011.9 mb 0.00 in0.0 mm 0.00 in0.0 mm 0.35 in8.9 mm
09:31 PM 45.7°F7.6°C 43.7°F6.5°C 93% Calm Calm 2.0 mph3.2 kmh 29.89 in1012.2 mb 0.00 in0.0 mm 0.00 in0.0 mm 0.35 in8.9 mm
09:41 PM 45.9°F7.7°C 44.2°F6.8°C 94% Calm Calm 0.9 mph1.4 kmh 29.89 in1012.2 mb 0.00 in0.0 mm 0.00 in0.0 mm 0.35 in8.9 mm
09:51 PM 45.9°F7.7°C 43.9°F6.6°C 93% Calm Calm 2.0 mph3.2 kmh 29.89 in1012.2 mb 0.00 in0.0 mm 0.00 in0.0 mm 0.35 in8.9 mm
10:01 PM 45.9°F7.7°C 43.9°F6.6°C 93% Calm Calm 2.0 mph3.2 kmh 29.88 in1011.9 mb 0.00 in0.0 mm 0.00 in0.0 mm 0.35 in8.9 mm
10:11 PM 45.7°F7.6°C 43.7°F6.5°C 93% Calm Calm 3.0 mph4.8 kmh 29.88 in1011.9 mb 0.00 in0.0 mm 0.00 in0.0 mm 0.35 in8.9 mm
10:21 PM 45.7°F7.6°C 44.1°F6.7°C 94% Calm Calm 2.0 mph3.2 kmh 29.88 in1011.9 mb 0.00 in0.0 mm 0.00 in0.0 mm 0.35 in8.9 mm
10:31 PM 45.7°F7.6°C 44.1°F6.7°C 94% Calm Calm 0.9 mph1.4 kmh 29.88 in1011.9 mb 0.00 in0.0 mm 0.00 in0.0 mm 0.35 in8.9 mm
10:41 PM 45.7°F7.6°C 44.1°F6.7°C 94% Calm Calm 2.0 mph3.2 kmh 29.88 in1011.9 mb 0.00 in0.0 mm 0.00 in0.0 mm 0.35 in8.9 mm
10:51 PM 45.9°F7.7°C 44.2°F6.8°C 94% Calm Calm 0.9 mph1.4 kmh 29.88 in1011.9 mb 0.00 in0.0 mm 0.00 in0.0 mm 0.35 in8.9 mm
11:01 PM 45.9°F7.7°C 44.2°F6.8°C 94% Calm Calm 0.9 mph1.4 kmh 29.88 in1011.9 mb 0.00 in0.0 mm 0.00 in0.0 mm 0.35 in8.9 mm
11:11 PM 45.9°F7.7°C 44.2°F6.8°C 94% Calm Calm 3.0 mph4.8 kmh 29.88 in1011.9 mb 0.00 in0.0 mm 0.00 in0.0 mm 0.35 in8.9 mm
11:21 PM 45.9°F7.7°C 44.2°F6.8°C 94% Calm Calm 0.9 mph1.4 kmh 29.88 in1011.9 mb 0.00 in0.0 mm 0.00 in0.0 mm 0.35 in8.9 mm
11:31 PM 45.7°F7.6°C 44.1°F6.7°C 94% Calm Calm 0.9 mph1.4 kmh 29.88 in1011.9 mb 0.00 in0.0 mm 0.00 in0.0 mm 0.35 in8.9 mm
11:41 PM 45.7°F7.6°C 44.1°F6.7°C 94% Calm Calm 2.9 mph4.7 kmh 29.87 in1011.5 mb 0.00 in0.0 mm 0.00 in0.0 mm 0.35 in8.9 mm
11:51 PM 45.7°F7.6°C 44.1°F6.7°C 94% Calm Calm 0.9 mph1.4 kmh 29.87 in1011.5 mb 0.00 in0.0 mm 0.00 in0.0 mm 0.35 in8.9 mm